createdAt,value
2022-10-06T00:01:20.918Z,1.10
2022-10-06T00:03:50.182Z,1.20
2022-10-06T00:06:19.377Z,1.10
2022-10-06T00:08:48.242Z,1.20
2022-10-06T00:11:17.725Z,1.30
2022-10-06T00:13:45.702Z,1.40
2022-10-06T00:16:17.450Z,1.40
2022-10-06T00:18:46.412Z,1.50
2022-10-06T00:21:15.837Z,1.40
2022-10-06T00:23:43.720Z,1.30
2022-10-06T00:26:13.492Z,1.40
2022-10-06T00:28:41.459Z,1.30
2022-10-06T00:31:09.444Z,1.40
2022-10-06T00:33:37.848Z,1.40
2022-10-06T00:36:05.954Z,1.43
2022-10-06T00:38:36.041Z,1.30
2022-10-06T00:41:04.116Z,1.50
2022-10-06T00:43:48.293Z,1.40
2022-10-06T00:46:24.313Z,1.40
2022-10-06T00:48:59.770Z,1.50
2022-10-06T00:51:30.014Z,1.40
2022-10-06T00:53:59.264Z,1.50
2022-10-06T00:56:27.420Z,1.57
2022-10-06T00:58:55.279Z,1.57
2022-10-06T01:01:23.230Z,1.43
2022-10-06T01:03:56.567Z,1.40
2022-10-06T01:06:24.421Z,1.40
2022-10-06T01:08:52.821Z,1.40
2022-10-06T01:11:22.399Z,1.30
2022-10-06T01:13:50.623Z,1.60
2022-10-06T01:16:23.261Z,1.40
2022-10-06T01:18:51.806Z,1.50
2022-10-06T01:21:27.908Z,1.60
2022-10-06T01:23:58.436Z,1.47
2022-10-06T01:26:28.607Z,1.40
2022-10-06T01:28:57.039Z,1.50
2022-10-06T01:31:25.527Z,1.57
2022-10-06T01:33:54.017Z,1.50
2022-10-06T01:36:22.476Z,1.40
2022-10-06T01:38:50.394Z,1.30
2022-10-06T01:41:19.666Z,1.57
2022-10-06T01:43:47.571Z,1.40
2022-10-06T01:46:15.524Z,1.50
2022-10-06T01:48:43.413Z,1.50
2022-10-06T01:51:16.001Z,1.50
2022-10-06T01:53:44.243Z,1.40
2022-10-06T01:56:12.688Z,1.40
2022-10-06T01:58:41.960Z,1.43
2022-10-06T02:01:11.508Z,1.40
2022-10-06T02:03:40.608Z,1.50
2022-10-06T02:06:09.326Z,1.40
2022-10-06T02:08:37.368Z,1.30
2022-10-06T02:11:10.367Z,1.20
2022-10-06T02:13:38.654Z,1.20
2022-10-06T02:16:09.417Z,1.10
2022-10-06T02:18:37.889Z,1.10
2022-10-06T02:21:05.919Z,1.10
2022-10-06T02:23:44.609Z,1.27
2022-10-06T02:26:13.710Z,1.23
2022-10-06T02:28:41.613Z,1.30
2022-10-06T02:31:11.056Z,1.20
2022-10-06T02:33:40.370Z,1.27
2022-10-06T02:36:09.621Z,1.17
2022-10-06T02:38:37.501Z,1.40
2022-10-06T02:41:05.446Z,1.30
2022-10-06T02:43:34.810Z,1.33
2022-10-06T02:46:04.453Z,1.30
2022-10-06T02:48:34.728Z,1.50
2022-10-06T02:51:04.934Z,1.50
2022-10-06T02:53:32.780Z,1.30
2022-10-06T02:56:00.856Z,1.40
2022-10-06T02:58:30.103Z,1.50
2022-10-06T03:01:03.028Z,1.30
2022-10-06T03:03:31.448Z,1.30
2022-10-06T03:06:04.864Z,1.47
2022-10-06T03:08:33.220Z,1.30
2022-10-06T03:11:02.525Z,1.40
2022-10-06T03:13:31.700Z,1.30
2022-10-06T03:15:59.799Z,1.30
2022-10-06T03:18:28.022Z,1.40
2022-10-06T03:21:01.449Z,1.30
2022-10-06T03:23:30.795Z,1.23
2022-10-06T03:25:58.868Z,1.40
2022-10-06T03:28:27.337Z,1.30
2022-10-06T03:30:55.681Z,1.43
2022-10-06T03:33:23.509Z,1.40
2022-10-06T03:35:59.781Z,1.43
2022-10-06T03:38:27.915Z,1.40
2022-10-06T03:41:05.764Z,1.40
2022-10-06T03:43:33.785Z,1.40
2022-10-06T03:46:02.456Z,1.40
2022-10-06T03:48:31.148Z,1.30
2022-10-06T03:51:00.845Z,1.20
2022-10-06T03:53:30.086Z,1.40
2022-10-06T03:56:02.153Z,1.30
2022-10-06T03:58:32.590Z,1.30
2022-10-06T04:01:02.766Z,1.20
2022-10-06T04:03:31.097Z,1.20
2022-10-06T04:06:00.828Z,1.20
2022-10-06T04:08:29.697Z,1.30
2022-10-06T04:11:05.892Z,1.23
2022-10-06T04:13:35.366Z,1.20
2022-10-06T04:16:11.324Z,1.17
2022-10-06T04:18:39.281Z,1.30
2022-10-06T04:21:07.590Z,1.00
2022-10-06T04:23:36.509Z,1.20
2022-10-06T04:26:09.449Z,1.00
2022-10-06T04:28:40.004Z,1.10
2022-10-06T04:31:12.955Z,1.10
2022-10-06T04:33:40.965Z,1.03
2022-10-06T04:36:16.948Z,1.17
2022-10-06T04:38:44.892Z,1.10
2022-10-06T04:41:14.579Z,1.20
2022-10-06T04:43:45.777Z,1.20
2022-10-06T04:46:40.790Z,0.90
2022-10-06T04:49:02.132Z,1.00
2022-10-06T04:51:30.096Z,1.00
2022-10-06T04:53:58.060Z,1.03
2022-10-06T04:56:27.738Z,1.00
2022-10-06T04:58:58.175Z,1.00
2022-10-06T05:01:28.614Z,1.17
2022-10-06T05:03:57.801Z,1.00
2022-10-06T05:06:27.358Z,1.10
2022-10-06T05:08:56.921Z,1.07
2022-10-06T05:11:26.233Z,1.10
2022-10-06T05:13:57.658Z,1.10
2022-10-06T05:16:27.703Z,1.10
2022-10-06T05:18:55.843Z,0.80
2022-10-06T05:21:25.730Z,0.87
2022-10-06T05:23:53.786Z,0.90
2022-10-06T05:26:23.296Z,1.00
2022-10-06T05:28:51.372Z,0.90
2022-10-06T05:31:22.518Z,0.80
2022-10-06T05:33:50.718Z,1.17
2022-10-06T05:36:20.084Z,0.80
2022-10-06T05:38:48.549Z,0.80
2022-10-06T05:41:17.869Z,0.90
2022-10-06T05:43:46.845Z,0.90
2022-10-06T05:46:17.693Z,0.90
2022-10-06T05:48:48.263Z,1.00
2022-10-06T05:51:16.371Z,1.03
2022-10-06T05:53:44.655Z,0.93
2022-10-06T05:56:14.882Z,1.00
2022-10-06T05:58:44.992Z,1.10
2022-10-06T06:01:15.367Z,0.87
2022-10-06T06:03:47.796Z,1.10
2022-10-06T06:06:22.710Z,0.83
2022-10-06T06:08:54.336Z,0.93
2022-10-06T06:11:25.393Z,1.10
2022-10-06T06:13:53.570Z,0.90
2022-10-06T06:16:20.557Z,1.10
2022-10-06T06:18:48.748Z,1.00
2022-10-06T06:21:16.674Z,1.00
2022-10-06T06:23:47.135Z,1.30
2022-10-06T06:26:18.115Z,1.20
2022-10-06T06:28:47.723Z,1.13
2022-10-06T06:31:20.298Z,1.40
2022-10-06T06:33:49.843Z,2.30
2022-10-06T06:36:19.028Z,1.53
2022-10-06T06:38:52.004Z,2.00
2022-10-06T06:41:21.815Z,2.00
2022-10-06T06:43:50.510Z,1.93
2022-10-06T06:46:20.036Z,1.90
2022-10-06T06:48:48.450Z,2.30
2022-10-06T06:51:16.342Z,1.83
2022-10-06T06:53:44.273Z,1.50
2022-10-06T06:56:13.548Z,1.27
2022-10-06T06:58:46.310Z,1.40
2022-10-06T07:01:16.056Z,1.10
2022-10-06T07:03:57.047Z,1.30
2022-10-06T07:06:28.769Z,1.50
2022-10-06T07:08:58.395Z,1.30
2022-10-06T07:11:29.169Z,1.30
2022-10-06T07:14:01.088Z,1.47
2022-10-06T07:16:47.992Z,1.60
2022-10-06T07:19:34.415Z,1.20
2022-10-06T07:22:21.759Z,1.40
2022-10-06T07:25:07.118Z,1.40
2022-10-06T07:27:38.512Z,1.20
2022-10-06T07:30:07.284Z,1.50
2022-10-06T07:32:35.126Z,1.30
2022-10-06T07:35:04.257Z,1.30
2022-10-06T07:37:32.203Z,1.50
2022-10-06T07:40:00.102Z,1.40
2022-10-06T07:42:27.979Z,1.50
2022-10-06T07:45:14.714Z,1.63
2022-10-06T07:47:42.616Z,1.50
2022-10-06T07:50:12.925Z,1.70
2022-10-06T07:52:40.785Z,1.30
2022-10-06T07:55:09.442Z,1.57
2022-10-06T07:57:37.310Z,1.70
2022-10-06T08:00:08.131Z,1.60
2022-10-06T08:02:36.326Z,1.90
2022-10-06T08:05:05.064Z,1.70
2022-10-06T08:07:32.987Z,2.00
2022-10-06T08:10:00.870Z,2.13
2022-10-06T08:12:34.638Z,1.60
2022-10-06T08:15:07.080Z,1.83
2022-10-06T08:17:37.558Z,1.90
2022-10-06T08:20:07.421Z,2.10
2022-10-06T08:22:36.313Z,2.37
2022-10-06T08:25:08.578Z,2.00
2022-10-06T08:27:37.903Z,2.10
2022-10-06T08:30:07.312Z,2.07
2022-10-06T08:32:36.602Z,1.90
2022-10-06T08:35:04.621Z,2.20
2022-10-06T08:37:32.507Z,2.17
2022-10-06T08:40:00.362Z,1.90
2022-10-06T08:42:35.594Z,1.70
2022-10-06T08:45:06.028Z,2.20
2022-10-06T08:47:37.630Z,2.30
2022-10-06T08:50:10.511Z,2.20
2022-10-06T08:52:49.329Z,2.20
2022-10-06T08:55:30.615Z,1.97
2022-10-06T08:58:11.813Z,1.97
2022-10-06T09:00:39.825Z,2.70
2022-10-06T09:03:23.062Z,2.33
2022-10-06T09:05:53.931Z,2.30
2022-10-06T09:08:39.785Z,2.23
2022-10-06T09:11:22.245Z,2.93
2022-10-06T09:13:54.272Z,2.23
2022-10-06T09:16:29.247Z,2.23
2022-10-06T09:19:08.793Z,2.10
2022-10-06T09:21:43.324Z,2.23
2022-10-06T09:24:15.870Z,2.30
2022-10-06T09:26:46.610Z,2.20
2022-10-06T09:29:15.258Z,2.40
2022-10-06T09:31:50.537Z,2.43
2022-10-06T09:34:26.545Z,2.27
2022-10-06T09:37:03.059Z,2.03
2022-10-06T09:39:36.570Z,1.83
2022-10-06T09:42:12.586Z,1.90
2022-10-06T09:44:48.122Z,2.13
2022-10-06T09:47:35.916Z,2.20
2022-10-06T09:50:16.374Z,1.80
2022-10-06T09:53:03.487Z,2.07
2022-10-06T09:55:34.219Z,2.10
2022-10-06T09:58:03.027Z,2.00
2022-10-06T10:00:33.043Z,1.70
2022-10-06T10:03:03.953Z,2.10
2022-10-06T10:05:35.209Z,1.70
2022-10-06T10:08:06.268Z,2.10
2022-10-06T10:10:36.577Z,2.10
2022-10-06T10:13:18.622Z,2.10
2022-10-06T10:15:53.628Z,1.60
2022-10-06T10:18:26.685Z,1.70
2022-10-06T10:20:59.089Z,1.70
2022-10-06T10:23:32.052Z,1.77
2022-10-06T10:26:27.166Z,1.70
2022-10-06T10:29:42.377Z,1.43
2022-10-06T10:32:15.384Z,1.50
2022-10-06T10:35:11.738Z,1.60
2022-10-06T10:37:47.598Z,1.40
2022-10-06T10:40:36.158Z,1.60
2022-10-06T10:43:12.525Z,1.50
2022-10-06T10:45:45.570Z,1.40
2022-10-06T10:48:19.821Z,1.70
2022-10-06T10:50:56.871Z,1.50
2022-10-06T10:53:32.646Z,1.37
2022-10-06T10:56:01.598Z,1.57
2022-10-06T10:58:33.123Z,1.67
2022-10-06T11:01:09.235Z,1.80
2022-10-06T11:03:37.390Z,1.90
2022-10-06T11:06:27.934Z,1.90
2022-10-06T11:09:02.664Z,1.40
2022-10-06T11:11:51.296Z,1.60
2022-10-06T11:14:32.300Z,1.60
2022-10-06T11:17:10.090Z,1.37
2022-10-06T11:19:48.940Z,1.60
2022-10-06T11:22:27.673Z,1.53
2022-10-06T11:25:05.705Z,1.93
2022-10-06T11:27:44.729Z,1.80
2022-10-06T11:30:18.289Z,1.80
2022-10-06T11:32:56.184Z,1.60
2022-10-06T11:35:27.049Z,1.70
2022-10-06T11:37:58.834Z,1.60
2022-10-06T11:40:38.195Z,1.80
2022-10-06T11:43:15.441Z,1.40
2022-10-06T11:45:49.477Z,1.33
2022-10-06T11:48:26.634Z,1.30
2022-10-06T11:50:56.500Z,1.40
2022-10-06T11:53:38.849Z,1.30
2022-10-06T11:56:42.312Z,1.03
2022-10-06T11:59:13.733Z,1.20
2022-10-06T12:02:00.930Z,1.10
2022-10-06T12:04:29.310Z,0.90
2022-10-06T12:07:04.877Z,1.00
2022-10-06T12:09:53.661Z,1.03
2022-10-06T12:13:06.863Z,1.10
2022-10-06T12:19:03.897Z,0.90
2022-10-06T12:21:40.162Z,1.00
2022-10-06T12:24:21.948Z,1.00
2022-10-06T12:26:59.299Z,1.10
2022-10-06T12:29:41.698Z,1.20
2022-10-06T12:32:21.013Z,1.13
2022-10-06T12:35:03.304Z,1.10
2022-10-06T12:37:51.489Z,1.10
2022-10-06T12:40:55.335Z,1.20
2022-10-06T12:43:59.218Z,1.07
2022-10-06T12:46:46.593Z,1.20
2022-10-06T12:49:46.547Z,0.97
2022-10-06T12:52:44.529Z,1.17
2022-10-06T12:55:43.058Z,1.10
2022-10-06T12:58:19.605Z,1.10
2022-10-06T13:00:48.361Z,1.00
2022-10-06T13:03:20.642Z,1.00
2022-10-06T13:05:56.185Z,1.00
2022-10-06T13:08:26.224Z,1.10
2022-10-06T13:11:12.627Z,1.10
2022-10-06T13:13:47.849Z,1.10
2022-10-06T13:16:15.855Z,1.00
2022-10-06T13:18:43.872Z,1.07
2022-10-06T13:21:16.538Z,1.30
2022-10-06T13:23:46.604Z,1.10
2022-10-06T13:26:22.947Z,0.97
2022-10-06T13:28:52.917Z,1.03
2022-10-06T13:31:23.469Z,1.30
2022-10-06T13:33:55.234Z,1.20
2022-10-06T13:36:25.466Z,1.23
2022-10-06T13:38:53.464Z,1.43
2022-10-06T13:41:28.175Z,1.57
2022-10-06T13:43:59.352Z,1.33
2022-10-06T13:46:29.587Z,1.30
2022-10-06T13:49:03.527Z,1.30
2022-10-06T13:51:33.968Z,1.30
2022-10-06T13:54:05.284Z,1.27
2022-10-06T13:56:38.790Z,1.23
2022-10-06T13:59:34.755Z,1.20
2022-10-06T14:02:21.501Z,1.20
2022-10-06T14:05:37.241Z,1.23
2022-10-06T14:08:22.103Z,1.20
2022-10-06T14:10:52.865Z,1.10
2022-10-06T14:13:24.169Z,1.20
2022-10-06T14:15:54.459Z,1.27
2022-10-06T14:18:25.992Z,1.20
2022-10-06T14:20:54.764Z,1.20
2022-10-06T14:23:49.821Z,1.20
2022-10-06T14:26:20.111Z,1.10
2022-10-06T14:28:51.547Z,1.10
2022-10-06T14:31:20.182Z,1.20
2022-10-06T14:33:49.491Z,1.20
2022-10-06T14:36:20.643Z,1.10
2022-10-06T14:38:52.033Z,1.10
2022-10-06T14:41:24.808Z,1.00
2022-10-06T14:43:56.283Z,1.20
2022-10-06T14:46:25.477Z,1.20
2022-10-06T14:48:53.938Z,1.20
2022-10-06T14:51:24.314Z,1.20
2022-10-06T14:53:54.679Z,1.13
2022-10-06T14:56:23.997Z,1.10
2022-10-06T14:58:53.013Z,1.10
2022-10-06T15:01:25.037Z,1.40
2022-10-06T15:03:53.961Z,1.20
2022-10-06T15:06:39.241Z,1.27
2022-10-06T15:09:09.126Z,1.10
2022-10-06T15:11:37.236Z,1.10
2022-10-06T15:14:06.059Z,1.00
2022-10-06T15:16:34.827Z,0.97
2022-10-06T15:19:05.470Z,0.90
2022-10-06T15:21:34.273Z,1.03
2022-10-06T15:24:04.602Z,1.13
2022-10-06T15:26:52.126Z,0.90
2022-10-06T15:29:20.174Z,1.17
2022-10-06T15:31:52.768Z,1.00
2022-10-06T15:34:23.353Z,0.90
2022-10-06T15:36:52.605Z,1.10
2022-10-06T15:39:22.332Z,1.00
2022-10-06T15:41:52.284Z,0.93
2022-10-06T15:44:21.003Z,1.10
2022-10-06T15:46:50.699Z,0.93
2022-10-06T15:49:21.005Z,1.17
2022-10-06T15:51:50.695Z,0.93
2022-10-06T15:54:20.772Z,1.00
2022-10-06T15:56:49.596Z,0.97
2022-10-06T15:59:22.682Z,1.00
2022-10-06T16:01:52.082Z,0.90
2022-10-06T16:04:29.535Z,0.90
2022-10-06T16:07:00.574Z,0.80
2022-10-06T16:09:30.206Z,0.90
2022-10-06T16:12:00.176Z,0.80
2022-10-06T16:14:30.209Z,0.90
2022-10-06T16:17:01.592Z,0.80
2022-10-06T16:19:31.740Z,0.83
2022-10-06T16:22:00.728Z,0.80
2022-10-06T16:24:29.128Z,0.90
2022-10-06T16:26:58.142Z,0.80
2022-10-06T16:29:26.674Z,0.87
2022-10-06T16:31:56.325Z,0.90
2022-10-06T16:34:25.457Z,1.00
2022-10-06T16:36:53.525Z,0.90
2022-10-06T16:39:23.095Z,1.00
2022-10-06T16:41:52.074Z,0.80
2022-10-06T16:44:20.283Z,0.90
2022-10-06T16:46:48.612Z,0.90
2022-10-06T16:49:18.582Z,0.80
2022-10-06T16:51:46.908Z,0.90
2022-10-06T16:54:17.217Z,1.00
2022-10-06T16:56:46.739Z,1.00
2022-10-06T16:59:16.475Z,1.10
2022-10-06T17:01:45.295Z,0.90
2022-10-06T17:04:15.309Z,0.93
2022-10-06T17:06:46.919Z,1.10
2022-10-06T17:09:17.215Z,1.10
2022-10-06T17:11:47.510Z,1.20
2022-10-06T17:14:16.507Z,1.00
2022-10-06T17:16:46.712Z,1.10
2022-10-06T17:19:16.491Z,1.10
2022-10-06T17:21:48.729Z,1.20
2022-10-06T17:24:18.734Z,1.20
2022-10-06T17:26:48.914Z,1.20
2022-10-06T17:29:19.054Z,1.00
2022-10-06T17:31:48.602Z,1.00
2022-10-06T17:34:21.838Z,1.00
2022-10-06T17:36:53.450Z,1.10
2022-10-06T17:39:23.048Z,1.13
2022-10-06T17:41:53.537Z,1.20
2022-10-06T17:44:24.197Z,1.10
2022-10-06T17:46:55.167Z,0.87
2022-10-06T17:49:24.926Z,1.07
2022-10-06T17:51:55.854Z,1.10
2022-10-06T17:54:25.764Z,1.20
2022-10-06T17:56:55.941Z,1.40
2022-10-06T17:59:25.875Z,1.13
2022-10-06T18:01:56.409Z,1.20
2022-10-06T18:04:25.033Z,1.43
2022-10-06T18:06:55.197Z,1.30
2022-10-06T18:09:23.894Z,1.40
2022-10-06T18:11:55.818Z,1.27
2022-10-06T18:14:25.613Z,1.63
2022-10-06T18:16:56.756Z,1.40
2022-10-06T18:19:28.593Z,1.50
2022-10-06T18:21:59.820Z,1.80
2022-10-06T18:24:29.191Z,1.83
2022-10-06T18:26:59.738Z,2.20
2022-10-06T18:29:30.508Z,2.00
2022-10-06T18:32:09.415Z,1.90
2022-10-06T18:37:36.004Z,2.30
2022-10-06T18:40:06.531Z,2.73
2022-10-06T18:42:35.901Z,2.53
2022-10-06T18:45:21.355Z,2.37
2022-10-06T18:48:07.018Z,2.27
2022-10-06T18:50:35.248Z,2.53
2022-10-06T18:53:05.102Z,2.40
2022-10-06T18:55:35.034Z,2.80
2022-10-06T18:58:03.339Z,2.83
2022-10-06T19:00:31.257Z,3.17
2022-10-06T19:02:59.185Z,2.60
2022-10-06T19:05:27.090Z,2.90
2022-10-06T19:07:55.815Z,2.80
2022-10-06T19:10:25.085Z,2.70
2022-10-06T19:12:52.993Z,3.10
2022-10-06T19:15:21.530Z,3.43
2022-10-06T19:17:49.950Z,2.80
2022-10-06T19:20:18.483Z,2.73
2022-10-06T19:22:47.592Z,3.20
2022-10-06T19:25:18.840Z,3.57
2022-10-06T19:27:48.676Z,3.30
2022-10-06T19:30:16.642Z,3.10
2022-10-06T19:32:44.655Z,3.43
2022-10-06T19:35:12.652Z,3.47
2022-10-06T19:37:41.430Z,3.60
2022-10-06T19:40:11.438Z,3.43
2022-10-06T19:42:47.988Z,3.03
2022-10-06T19:45:19.651Z,3.30
2022-10-06T19:47:47.944Z,2.93
2022-10-06T19:50:17.452Z,3.20
2022-10-06T19:52:46.314Z,3.53
2022-10-06T19:55:14.464Z,4.13
2022-10-06T19:57:43.035Z,3.40
2022-10-06T20:00:12.496Z,3.27
2022-10-06T20:02:43.265Z,3.47
2022-10-06T20:05:12.439Z,3.50
2022-10-06T20:07:40.642Z,2.70
2022-10-06T20:10:09.277Z,3.50
2022-10-06T20:12:38.395Z,3.30
2022-10-06T20:15:07.601Z,3.07
2022-10-06T20:17:36.113Z,3.10
2022-10-06T20:20:06.239Z,3.10
2022-10-06T20:22:34.126Z,3.30
2022-10-06T20:25:02.547Z,3.10
2022-10-06T20:27:30.624Z,3.30
2022-10-06T20:29:59.158Z,3.47
2022-10-06T20:32:27.483Z,3.00
2022-10-06T20:34:55.575Z,2.90
2022-10-06T20:37:24.860Z,2.97
2022-10-06T20:40:10.635Z,2.90
2022-10-06T20:42:40.063Z,3.37
2022-10-06T20:45:08.746Z,3.00
2022-10-06T20:47:36.663Z,3.10
2022-10-06T20:50:04.945Z,3.20
2022-10-06T20:52:34.369Z,3.20
2022-10-06T20:55:02.269Z,3.10
2022-10-06T20:57:44.131Z,3.67
2022-10-06T21:00:14.356Z,3.00
2022-10-06T21:02:42.298Z,3.03
2022-10-06T21:05:10.523Z,3.80
2022-10-06T21:07:39.783Z,3.27
2022-10-06T21:10:08.972Z,3.30
2022-10-06T21:12:36.893Z,2.77
2022-10-06T21:15:05.366Z,3.07
2022-10-06T21:17:33.247Z,3.23
2022-10-06T21:20:01.159Z,3.10
2022-10-06T21:22:31.145Z,3.03
2022-10-06T21:25:00.396Z,3.47
2022-10-06T21:27:28.605Z,3.47
2022-10-06T21:29:56.508Z,3.23
2022-10-06T21:32:25.442Z,3.53
2022-10-06T21:34:55.866Z,3.50
2022-10-06T21:37:23.839Z,3.13
2022-10-06T21:39:51.704Z,3.40
2022-10-06T21:42:20.975Z,3.37
2022-10-06T21:44:48.845Z,3.13
2022-10-06T21:47:16.786Z,3.00
2022-10-06T21:49:44.724Z,3.50
2022-10-06T21:52:12.598Z,3.30
2022-10-06T21:54:40.492Z,3.13
2022-10-06T21:57:08.702Z,3.07
2022-10-06T21:59:37.960Z,3.53
2022-10-06T22:02:05.886Z,3.17
2022-10-06T22:04:33.652Z,3.10
2022-10-06T22:07:01.541Z,3.40
2022-10-06T22:09:29.391Z,3.57
2022-10-06T22:11:57.304Z,3.33
2022-10-06T22:14:25.164Z,3.87
2022-10-06T22:16:54.405Z,3.60
2022-10-06T22:19:22.378Z,3.77
2022-10-06T22:21:50.279Z,3.40
2022-10-06T22:24:20.222Z,3.53
2022-10-06T22:26:48.707Z,3.33
2022-10-06T22:29:18.652Z,3.80
2022-10-06T22:31:47.939Z,3.10
2022-10-06T22:34:19.615Z,3.00
2022-10-06T22:36:47.587Z,3.30
2022-10-06T22:39:15.552Z,3.90
2022-10-06T22:41:44.040Z,4.20
2022-10-06T22:44:11.930Z,3.47
2022-10-06T22:46:39.925Z,3.47
2022-10-06T22:49:07.903Z,2.70
2022-10-06T22:51:37.200Z,3.80
2022-10-06T22:54:05.473Z,3.30
2022-10-06T22:56:34.984Z,3.57
2022-10-06T22:59:03.069Z,3.10
2022-10-06T23:01:31.309Z,3.50
2022-10-06T23:03:59.685Z,3.43
2022-10-06T23:06:29.740Z,3.17
2022-10-06T23:08:59.644Z,3.33
2022-10-06T23:11:27.657Z,3.40
2022-10-06T23:13:55.666Z,3.30
2022-10-06T23:16:23.986Z,3.83
2022-10-06T23:18:52.210Z,4.20
2022-10-06T23:21:22.610Z,3.83
2022-10-06T23:23:52.631Z,3.10
2022-10-06T23:26:23.493Z,3.40
2022-10-06T23:28:53.582Z,3.40
2022-10-06T23:31:21.746Z,3.50
2022-10-06T23:33:50.074Z,3.10
2022-10-06T23:36:18.441Z,3.73
2022-10-06T23:38:47.032Z,4.10
2022-10-06T23:41:15.179Z,3.93
2022-10-06T23:43:44.659Z,3.93
2022-10-06T23:46:12.762Z,3.23
2022-10-06T23:48:40.798Z,4.07
2022-10-06T23:51:11.357Z,3.80
2022-10-06T23:53:39.265Z,3.60
2022-10-06T23:56:07.809Z,3.40
2022-10-06T23:58:36.181Z,3.87
